createdAt,value
2018-06-15T00:00:14.516Z,7.73
2018-06-15T00:02:47.145Z,7.87
2018-06-15T00:05:15.439Z,8.40
2018-06-15T00:07:43.738Z,8.73
2018-06-15T00:10:12.008Z,8.40
2018-06-15T00:12:40.345Z,7.77
2018-06-15T00:15:08.644Z,7.70
2018-06-15T00:17:36.931Z,7.50
2018-06-15T00:20:05.267Z,8.17
2018-06-15T00:22:33.570Z,8.30
2018-06-15T00:25:01.838Z,7.90
2018-06-15T00:27:30.146Z,8.93
2018-06-15T00:29:58.440Z,8.80
2018-06-15T00:32:26.707Z,7.70
2018-06-15T00:34:55.069Z,8.80
2018-06-15T00:37:23.347Z,8.20
2018-06-15T00:39:51.634Z,8.23
2018-06-15T00:42:19.898Z,8.13
2018-06-15T00:44:48.197Z,7.90
2018-06-15T00:47:16.470Z,9.23
2018-06-15T00:49:44.792Z,8.37
2018-06-15T00:52:13.057Z,8.17
2018-06-15T00:54:41.350Z,8.00
2018-06-15T00:58:12.602Z,7.20
2018-06-15T01:00:40.899Z,7.50
2018-06-15T01:03:09.165Z,7.97
2018-06-15T01:05:37.473Z,7.93
2018-06-15T01:08:05.781Z,7.83
2018-06-15T01:10:34.086Z,8.40
2018-06-15T01:13:02.347Z,8.77
2018-06-15T01:15:30.657Z,8.87
2018-06-15T01:17:58.930Z,8.30
2018-06-15T01:20:27.221Z,8.40
2018-06-15T01:22:55.485Z,8.90
2018-06-15T01:25:23.786Z,7.77
2018-06-15T01:27:52.113Z,8.47
2018-06-15T01:30:20.448Z,8.30
2018-06-15T01:32:48.715Z,7.50
2018-06-15T01:35:17.009Z,8.77
2018-06-15T01:37:45.286Z,8.43
2018-06-15T01:40:13.573Z,7.97
2018-06-15T01:42:41.837Z,8.60
2018-06-15T01:45:10.133Z,8.00
2018-06-15T01:47:38.425Z,8.90
2018-06-15T01:50:06.751Z,7.47
2018-06-15T01:52:35.046Z,8.20
2018-06-15T01:55:03.401Z,9.37
2018-06-15T01:57:31.709Z,8.53
2018-06-15T01:59:59.997Z,7.90
2018-06-15T02:02:28.286Z,9.17
2018-06-15T02:04:56.626Z,8.70
2018-06-15T02:07:24.897Z,8.50
2018-06-15T02:09:53.168Z,9.23
2018-06-15T02:12:21.481Z,8.37
2018-06-15T02:14:49.827Z,8.80
2018-06-15T02:17:18.114Z,8.40
2018-06-15T02:19:46.400Z,8.53
2018-06-15T02:22:15.006Z,9.10
2018-06-15T02:24:43.311Z,8.83
2018-06-15T02:27:11.602Z,9.53
2018-06-15T02:29:39.870Z,9.47
2018-06-15T02:32:08.197Z,9.10
2018-06-15T02:34:36.471Z,9.53
2018-06-15T02:37:04.774Z,9.10
2018-06-15T02:39:33.067Z,9.80
2018-06-15T02:42:01.443Z,9.50
2018-06-15T02:44:29.718Z,8.83
2018-06-15T02:46:58.024Z,9.37
2018-06-15T02:49:26.309Z,9.67
2018-06-15T02:51:54.666Z,9.43
2018-06-15T02:54:22.942Z,9.57
2018-06-15T02:56:51.332Z,8.97
2018-06-15T02:59:19.624Z,9.90
2018-06-15T03:01:47.921Z,10.73
2018-06-15T03:04:16.195Z,8.40
2018-06-15T03:06:44.532Z,8.73
2018-06-15T03:09:12.830Z,9.80
2018-06-15T03:11:41.142Z,9.13
2018-06-15T03:14:09.446Z,10.33
2018-06-15T03:16:37.754Z,9.00
2018-06-15T03:19:06.079Z,9.63
2018-06-15T03:21:34.409Z,9.57
2018-06-15T03:24:02.716Z,10.33
2018-06-15T03:26:31.006Z,9.83
2018-06-15T03:28:59.289Z,9.40
2018-06-15T03:31:27.588Z,10.77
2018-06-15T03:33:55.874Z,9.77
2018-06-15T03:36:24.186Z,9.43
2018-06-15T03:38:52.454Z,11.87
2018-06-15T03:41:20.729Z,23.77
2018-06-15T03:43:49.038Z,13.73
2018-06-15T03:46:17.341Z,11.33
2018-06-15T03:48:45.673Z,13.97
2018-06-15T03:51:13.952Z,21.30
2018-06-15T03:53:42.274Z,17.67
2018-06-15T03:56:10.571Z,18.63
2018-06-15T03:58:38.893Z,13.57
2018-06-15T04:01:07.179Z,13.97
2018-06-15T04:03:35.558Z,11.07
2018-06-15T04:06:03.874Z,15.60
2018-06-15T04:08:32.184Z,18.47
2018-06-15T04:11:00.465Z,14.23
2018-06-15T04:13:28.795Z,13.10
2018-06-15T04:15:57.090Z,12.10
2018-06-15T04:18:25.409Z,11.10
2018-06-15T04:20:53.740Z,9.90
2018-06-15T04:23:22.044Z,10.73
2018-06-15T04:25:50.318Z,9.00
2018-06-15T04:28:18.642Z,10.00
2018-06-15T04:30:46.914Z,10.17
2018-06-15T04:33:15.213Z,9.83
2018-06-15T04:35:43.493Z,10.50
2018-06-15T04:38:11.811Z,9.20
2018-06-15T04:40:40.089Z,9.47
2018-06-15T04:43:08.447Z,8.70
2018-06-15T04:45:36.762Z,9.20
2018-06-15T04:48:05.106Z,10.20
2018-06-15T04:50:33.395Z,9.50
2018-06-15T04:53:01.694Z,8.93
2018-06-15T04:55:30.003Z,9.40
2018-06-15T04:57:58.277Z,11.50
2018-06-15T05:00:26.570Z,9.30
2018-06-15T05:02:54.871Z,10.27
2018-06-15T05:05:23.176Z,10.40
2018-06-15T05:07:51.462Z,8.83
2018-06-15T05:10:19.759Z,9.30
2018-06-15T05:12:48.053Z,10.10
2018-06-15T05:15:16.372Z,8.90
2018-06-15T05:17:44.653Z,10.00
2018-06-15T05:20:12.983Z,10.20
2018-06-15T05:22:41.258Z,8.90
2018-06-15T05:25:09.587Z,9.00
2018-06-15T05:27:37.872Z,8.83
2018-06-15T05:30:06.213Z,8.50
2018-06-15T05:32:34.570Z,9.40
2018-06-15T05:35:02.907Z,9.10
2018-06-15T05:37:31.193Z,9.63
2018-06-15T05:39:59.499Z,9.13
2018-06-15T05:42:27.801Z,8.63
2018-06-15T05:44:56.138Z,8.80
2018-06-15T05:47:25.019Z,8.10
2018-06-15T05:49:53.407Z,8.23
2018-06-15T05:52:21.790Z,7.87
2018-06-15T05:54:50.065Z,7.97
2018-06-15T05:57:18.375Z,7.20
2018-06-15T05:59:46.692Z,7.90
2018-06-15T06:02:14.966Z,7.57
2018-06-15T06:04:43.284Z,6.97
2018-06-15T06:07:11.553Z,7.00
2018-06-15T06:09:39.850Z,7.77
2018-06-15T06:12:08.147Z,6.20
2018-06-15T06:14:36.453Z,7.20
2018-06-15T06:17:04.747Z,7.07
2018-06-15T06:19:33.005Z,6.97
2018-06-15T06:22:01.304Z,6.00
2018-06-15T06:24:29.598Z,6.40
2018-06-15T06:26:57.946Z,5.73
2018-06-15T06:29:26.238Z,6.50
2018-06-15T06:31:54.601Z,6.50
2018-06-15T06:34:22.952Z,5.80
2018-06-15T06:36:51.254Z,6.40
2018-06-15T06:39:19.517Z,5.77
2018-06-15T06:41:47.833Z,5.73
2018-06-15T06:44:16.130Z,6.80
2018-06-15T06:46:44.441Z,5.10
2018-06-15T06:49:12.717Z,5.83
2018-06-15T06:51:41.034Z,5.77
2018-06-15T06:54:09.315Z,5.67
2018-06-15T06:56:37.637Z,5.50
2018-06-15T06:59:05.941Z,5.47
2018-06-15T07:01:34.233Z,4.60
2018-06-15T07:04:02.566Z,4.97
2018-06-15T07:06:30.864Z,4.40
2018-06-15T07:08:59.160Z,5.20
2018-06-15T07:11:27.504Z,3.90
2018-06-15T07:13:55.822Z,4.70
2018-06-15T07:16:24.112Z,5.23
2018-06-15T07:18:52.630Z,5.07
2018-06-15T07:21:20.924Z,4.60
2018-06-15T07:23:49.206Z,3.90
2018-06-15T07:26:17.511Z,4.40
2018-06-15T07:28:45.921Z,4.50
2018-06-15T07:31:14.260Z,4.13
2018-06-15T07:33:42.607Z,4.30
2018-06-15T07:36:10.925Z,4.00
2018-06-15T07:38:39.721Z,4.40
2018-06-15T07:41:08.674Z,4.00
2018-06-15T07:43:37.096Z,3.90
2018-06-15T07:46:05.454Z,3.43
2018-06-15T07:48:33.730Z,3.80
2018-06-15T07:51:02.371Z,3.60
2018-06-15T07:53:30.721Z,3.83
2018-06-15T07:55:59.114Z,4.40
2018-06-15T07:58:27.475Z,4.77
2018-06-15T08:00:55.913Z,3.47
2018-06-15T08:03:24.391Z,3.80
2018-06-15T08:05:52.799Z,4.13
2018-06-15T08:08:21.121Z,3.90
2018-06-15T08:10:49.411Z,5.30
2018-06-15T08:13:17.706Z,4.00
2018-06-15T08:15:46.056Z,4.10
2018-06-15T08:18:14.342Z,3.80
2018-06-15T08:20:42.674Z,5.30
2018-06-15T08:23:11.026Z,4.20
2018-06-15T08:25:39.375Z,4.07
2018-06-15T08:28:07.722Z,4.13
2018-06-15T08:30:36.073Z,4.30
2018-06-15T08:33:04.470Z,4.43
2018-06-15T08:35:32.848Z,3.90
2018-06-15T08:38:01.215Z,4.87
2018-06-15T08:40:29.521Z,4.13
2018-06-15T08:42:57.862Z,4.10
2018-06-15T08:45:26.177Z,3.77
2018-06-15T08:47:54.515Z,3.70
2018-06-15T08:50:22.864Z,3.27
2018-06-15T08:52:51.272Z,4.20
2018-06-15T08:55:19.524Z,3.90
2018-06-15T08:57:47.830Z,4.00
2018-06-15T09:00:16.108Z,3.57
2018-06-15T09:02:44.440Z,3.53
2018-06-15T09:05:12.732Z,3.50
2018-06-15T09:07:41.091Z,3.70
2018-06-15T09:10:09.440Z,3.10
2018-06-15T09:12:37.737Z,3.40
2018-06-15T09:15:06.101Z,4.03
2018-06-15T09:17:34.371Z,3.20
2018-06-15T09:20:02.717Z,2.77
2018-06-15T09:22:31.002Z,3.40
2018-06-15T09:24:59.306Z,3.43
2018-06-15T09:27:27.598Z,3.23
2018-06-15T09:29:55.941Z,3.00
2018-06-15T09:32:24.270Z,3.80
2018-06-15T09:34:52.586Z,3.37
2018-06-15T09:37:20.845Z,3.00
2018-06-15T09:39:49.145Z,3.13
2018-06-15T09:42:17.457Z,3.43
2018-06-15T09:44:45.858Z,3.20
2018-06-15T09:47:14.151Z,3.17
2018-06-15T09:49:42.457Z,3.10
2018-06-15T09:52:10.861Z,2.93
2018-06-15T09:54:39.174Z,3.23
2018-06-15T09:57:07.493Z,2.63
2018-06-15T09:59:35.809Z,2.63
2018-06-15T10:02:04.073Z,2.70
2018-06-15T10:04:32.425Z,2.87
2018-06-15T10:07:00.711Z,3.80
2018-06-15T10:09:29.014Z,3.07
2018-06-15T10:11:57.289Z,3.30
2018-06-15T10:14:25.664Z,2.70
2018-06-15T10:16:53.976Z,3.07
2018-06-15T10:19:22.292Z,2.97
2018-06-15T10:21:50.606Z,2.80
2018-06-15T10:24:18.946Z,3.40
2018-06-15T10:26:47.230Z,2.67
2018-06-15T10:29:15.554Z,3.03
2018-06-15T10:31:43.843Z,2.87
2018-06-15T10:34:12.133Z,2.90
2018-06-15T10:36:40.458Z,3.40
2018-06-15T10:39:10.073Z,3.63
2018-06-15T10:41:40.429Z,2.93
2018-06-15T10:44:08.753Z,2.90
2018-06-15T10:46:37.069Z,3.13
2018-06-15T10:49:05.394Z,2.70
2018-06-15T10:51:33.740Z,3.00
2018-06-15T10:54:02.063Z,3.13
2018-06-15T10:56:30.353Z,2.80
2018-06-15T10:58:58.641Z,3.83
2018-06-15T11:01:26.949Z,3.13
2018-06-15T11:03:55.209Z,3.60
2018-06-15T11:06:23.535Z,3.13
2018-06-15T11:08:51.845Z,3.00
2018-06-15T11:11:20.189Z,3.17
2018-06-15T11:13:48.481Z,3.00
2018-06-15T11:16:16.793Z,3.30
2018-06-15T11:18:45.088Z,3.50
2018-06-15T11:21:13.404Z,3.00
2018-06-15T11:23:41.723Z,3.30
2018-06-15T11:26:11.347Z,3.17
2018-06-15T11:28:39.706Z,3.17
2018-06-15T11:31:08.023Z,3.20
2018-06-15T11:33:36.321Z,3.50
2018-06-15T11:36:04.652Z,3.47
2018-06-15T11:38:32.939Z,3.73
2018-06-15T11:41:01.340Z,2.97
2018-06-15T11:43:29.586Z,2.63
2018-06-15T11:45:57.927Z,3.37
2018-06-15T11:48:26.204Z,3.53
2018-06-15T11:50:54.607Z,4.00
2018-06-15T11:53:22.897Z,3.50
2018-06-15T11:55:51.191Z,3.60
2018-06-15T11:58:19.475Z,3.90
2018-06-15T12:00:47.799Z,3.93
2018-06-15T12:03:16.098Z,3.90
2018-06-15T12:05:44.462Z,4.10
2018-06-15T12:08:12.738Z,3.80
2018-06-15T12:10:41.015Z,3.83
2018-06-15T12:13:09.361Z,3.27
2018-06-15T12:15:37.628Z,3.73
2018-06-15T12:18:05.945Z,3.53
2018-06-15T12:20:34.219Z,3.30
2018-06-15T12:23:02.619Z,3.70
2018-06-15T12:25:30.894Z,4.10
2018-06-15T12:27:59.206Z,3.43
2018-06-15T12:30:27.568Z,3.40
2018-06-15T12:32:55.925Z,3.37
2018-06-15T12:35:24.207Z,3.73
2018-06-15T12:37:52.545Z,3.73
2018-06-15T12:40:20.853Z,4.00
2018-06-15T12:42:49.138Z,3.50
2018-06-15T12:45:17.414Z,4.03
2018-06-15T12:47:45.723Z,3.20
2018-06-15T12:50:14.005Z,3.40
2018-06-15T12:52:42.336Z,3.90
2018-06-15T12:55:10.642Z,3.53
2018-06-15T12:57:38.945Z,4.43
2018-06-15T13:00:07.235Z,3.50
2018-06-15T13:02:35.524Z,3.60
2018-06-15T13:05:03.861Z,3.67
2018-06-15T13:07:32.157Z,3.70
2018-06-15T13:10:00.950Z,3.73
2018-06-15T13:12:29.861Z,3.40
2018-06-15T13:14:58.389Z,3.73
2018-06-15T13:17:26.701Z,4.00
2018-06-15T13:19:54.993Z,3.40
2018-06-15T13:22:23.286Z,3.97
2018-06-15T13:24:51.565Z,3.67
2018-06-15T13:27:19.881Z,3.60
2018-06-15T13:29:48.182Z,3.77
2018-06-15T13:32:16.486Z,3.20
2018-06-15T13:34:44.864Z,3.70
2018-06-15T13:37:13.130Z,4.10
2018-06-15T13:39:41.491Z,4.60
2018-06-15T13:42:09.754Z,3.50
2018-06-15T13:44:38.058Z,3.50
2018-06-15T13:47:06.352Z,3.37
2018-06-15T13:49:34.661Z,3.80
2018-06-15T13:52:02.961Z,3.63
2018-06-15T13:54:31.327Z,3.40
2018-06-15T13:56:59.620Z,3.40
2018-06-15T13:59:27.907Z,4.30
2018-06-15T14:01:56.194Z,4.37
2018-06-15T14:04:24.489Z,3.93
2018-06-15T14:06:52.918Z,3.33
2018-06-15T14:09:21.216Z,4.17
2018-06-15T14:11:49.492Z,4.07
2018-06-15T14:14:17.841Z,3.93
2018-06-15T14:16:46.138Z,5.40
2018-06-15T14:19:14.430Z,3.30
2018-06-15T14:21:42.718Z,3.60
2018-06-15T14:24:11.083Z,3.70
2018-06-15T14:26:39.359Z,3.97
2018-06-15T14:29:07.664Z,3.07
2018-06-15T14:31:35.921Z,3.83
2018-06-15T14:34:04.221Z,3.33
2018-06-15T14:36:32.491Z,3.80
2018-06-15T14:39:00.779Z,3.43
2018-06-15T14:41:29.083Z,4.13
2018-06-15T14:43:57.374Z,4.00
2018-06-15T14:46:25.646Z,3.80
2018-06-15T14:48:53.942Z,3.60
2018-06-15T14:51:22.225Z,3.83
2018-06-15T14:53:50.550Z,4.20
2018-06-15T14:56:18.849Z,4.03
2018-06-15T14:58:47.137Z,3.50
2018-06-15T15:01:15.450Z,3.50
2018-06-15T15:03:43.756Z,3.77
2018-06-15T15:06:12.066Z,3.70
2018-06-15T15:08:40.345Z,3.43
2018-06-15T15:11:08.659Z,3.60
2018-06-15T15:13:36.921Z,4.23
2018-06-15T15:16:05.277Z,4.00
2018-06-15T15:18:33.554Z,3.43
2018-06-15T15:21:01.868Z,3.43
2018-06-15T15:23:30.139Z,3.60
2018-06-15T15:25:58.432Z,3.90
2018-06-15T15:28:26.769Z,3.60
2018-06-15T15:30:55.075Z,3.83
2018-06-15T15:33:23.352Z,4.57
2018-06-15T15:35:51.667Z,4.27
2018-06-15T15:38:19.947Z,4.27
2018-06-15T15:40:48.254Z,4.77
2018-06-15T15:43:16.552Z,4.60
2018-06-15T15:45:44.899Z,4.30
2018-06-15T15:48:13.202Z,4.40
2018-06-15T15:50:41.508Z,4.20
2018-06-15T15:53:10.087Z,3.90
2018-06-15T15:55:38.393Z,4.93
2018-06-15T15:58:06.690Z,4.50
2018-06-15T16:00:34.977Z,4.53
2018-06-15T16:03:03.309Z,4.20
2018-06-15T16:05:31.616Z,4.40
2018-06-15T16:07:59.872Z,4.63
2018-06-15T16:10:28.201Z,4.03
2018-06-15T16:12:56.497Z,4.30
2018-06-15T16:15:24.826Z,4.27
2018-06-15T16:17:53.111Z,3.73
2018-06-15T16:20:21.450Z,4.40
2018-06-15T16:22:49.734Z,4.20
2018-06-15T16:25:18.053Z,4.33
2018-06-15T16:27:46.481Z,4.47
2018-06-15T16:30:14.774Z,4.47
2018-06-15T16:32:43.068Z,4.57
2018-06-15T16:35:11.392Z,3.57
2018-06-15T16:37:39.686Z,4.57
2018-06-15T16:40:07.976Z,4.00
2018-06-15T16:42:36.378Z,4.03
2018-06-15T16:45:05.122Z,4.20
2018-06-15T16:47:33.442Z,3.80
2018-06-15T16:50:01.724Z,4.50
2018-06-15T16:52:30.027Z,4.13
2018-06-15T16:54:58.325Z,4.40
2018-06-15T16:57:26.653Z,4.50
2018-06-15T16:59:54.950Z,4.23
2018-06-15T17:02:23.395Z,4.90
2018-06-15T17:04:52.038Z,4.83
2018-06-15T17:07:20.358Z,4.27
2018-06-15T17:09:48.671Z,4.27
2018-06-15T17:12:17.065Z,4.57
2018-06-15T17:14:45.543Z,5.00
2018-06-15T17:17:13.857Z,4.27
2018-06-15T17:19:42.134Z,4.53
2018-06-15T17:22:10.474Z,4.40
2018-06-15T17:24:38.753Z,4.27
2018-06-15T17:27:07.062Z,4.03
2018-06-15T17:29:35.358Z,4.73
2018-06-15T17:32:03.707Z,4.90
2018-06-15T17:34:32.114Z,4.90
2018-06-15T17:37:00.493Z,5.30
2018-06-15T17:39:28.765Z,4.07
2018-06-15T17:41:57.153Z,4.50
2018-06-15T17:44:25.454Z,4.33
2018-06-15T17:46:53.716Z,4.80
2018-06-15T17:49:22.034Z,4.60
2018-06-15T17:51:50.309Z,4.17
2018-06-15T17:54:18.613Z,4.47
2018-06-15T17:56:46.926Z,4.80
2018-06-15T17:59:15.240Z,4.77
2018-06-15T18:01:43.550Z,4.70
2018-06-15T18:04:11.875Z,5.03
2018-06-15T18:06:40.194Z,4.97
2018-06-15T18:09:09.366Z,5.20
2018-06-15T18:11:37.799Z,5.53
2018-06-15T18:14:06.227Z,5.10
2018-06-15T18:16:34.543Z,4.97
2018-06-15T18:19:02.886Z,5.53
2018-06-15T18:21:31.182Z,5.10
2018-06-15T18:23:59.517Z,5.70
2018-06-15T18:26:27.815Z,5.90
2018-06-15T18:28:56.174Z,5.60
2018-06-15T18:31:24.445Z,5.60
2018-06-15T18:33:53.213Z,6.00
2018-06-15T18:36:21.506Z,5.67
2018-06-15T18:38:49.846Z,6.03
2018-06-15T18:41:18.163Z,5.43
2018-06-15T18:43:46.510Z,6.13
2018-06-15T18:46:14.829Z,5.07
2018-06-15T18:48:43.182Z,6.30
2018-06-15T18:51:11.494Z,5.83
2018-06-15T18:53:39.825Z,6.00
2018-06-15T18:56:08.102Z,6.90
2018-06-15T18:58:36.389Z,7.00
2018-06-15T19:01:04.737Z,6.80
2018-06-15T19:03:33.039Z,7.47
2018-06-15T19:06:01.338Z,7.50
2018-06-15T19:08:29.627Z,8.60
2018-06-15T19:10:58.017Z,9.10
2018-06-15T19:13:26.307Z,7.40
2018-06-15T19:15:54.655Z,7.07
2018-06-15T19:18:22.943Z,7.13
2018-06-15T19:20:51.316Z,7.33
2018-06-15T19:23:19.604Z,8.20
2018-06-15T19:25:47.935Z,7.53
2018-06-15T19:28:16.274Z,6.90
2018-06-15T19:30:44.609Z,6.10
2018-06-15T19:33:12.890Z,7.00
2018-06-15T19:35:41.195Z,7.63
2018-06-15T19:38:09.483Z,6.23
2018-06-15T19:40:37.800Z,6.60
2018-06-15T19:43:06.111Z,7.20
2018-06-15T19:45:34.485Z,7.30
2018-06-15T19:48:02.786Z,7.80
2018-06-15T19:50:31.127Z,6.50
2018-06-15T19:52:59.549Z,6.83
2018-06-15T19:55:28.556Z,6.87
2018-06-15T19:57:57.022Z,6.53
2018-06-15T20:00:25.587Z,8.03
2018-06-15T20:02:53.874Z,7.60
2018-06-15T20:05:22.203Z,8.47
2018-06-15T20:07:50.524Z,7.90
2018-06-15T20:10:19.330Z,7.97
2018-06-15T20:12:47.681Z,9.00
2018-06-15T20:15:15.989Z,9.13
2018-06-15T20:17:44.300Z,7.73
2018-06-15T20:20:12.578Z,10.97
2018-06-15T20:22:40.904Z,9.90
2018-06-15T20:25:09.231Z,7.97
2018-06-15T20:27:37.558Z,11.20
2018-06-15T20:30:06.192Z,17.60
2018-06-15T20:32:34.484Z,14.00
2018-06-15T20:35:02.799Z,10.47
2018-06-15T20:37:31.105Z,10.90
2018-06-15T20:39:59.385Z,10.97
2018-06-15T20:42:27.718Z,12.17
2018-06-15T20:44:55.985Z,9.83
2018-06-15T20:47:24.307Z,9.87
2018-06-15T20:49:52.598Z,9.53
2018-06-15T20:52:20.909Z,8.70
2018-06-15T20:54:49.157Z,8.90
2018-06-15T20:57:17.461Z,10.00
2018-06-15T20:59:45.733Z,10.03
2018-06-15T21:02:14.031Z,8.63
2018-06-15T21:04:42.294Z,8.20
2018-06-15T21:07:10.593Z,9.20
2018-06-15T21:09:38.877Z,7.63
2018-06-15T21:12:07.219Z,8.83
2018-06-15T21:14:35.508Z,9.37
2018-06-15T21:17:03.821Z,7.87
2018-06-15T21:19:32.130Z,9.00
2018-06-15T21:22:00.553Z,7.50
2018-06-15T21:24:28.829Z,8.33
2018-06-15T21:26:57.112Z,7.87
2018-06-15T21:29:25.406Z,9.13
2018-06-15T21:31:53.740Z,8.60
2018-06-15T21:34:22.064Z,8.33
2018-06-15T21:36:50.357Z,8.60
2018-06-15T21:39:18.662Z,8.20
2018-06-15T21:41:46.974Z,8.67
2018-06-15T21:44:15.292Z,7.60
2018-06-15T21:46:43.559Z,8.50
2018-06-15T21:49:11.886Z,8.10
2018-06-15T21:51:40.161Z,8.50
2018-06-15T21:54:08.482Z,7.90
2018-06-15T21:56:36.757Z,8.37
2018-06-15T21:59:05.159Z,7.93
2018-06-15T22:01:33.462Z,8.27
2018-06-15T22:04:01.760Z,8.00
2018-06-15T22:06:30.044Z,7.93
2018-06-15T22:08:58.366Z,9.30
2018-06-15T22:11:26.633Z,8.90
2018-06-15T22:13:54.951Z,8.80
2018-06-15T22:16:23.221Z,8.97
2018-06-15T22:18:51.605Z,8.67
2018-06-15T22:21:19.877Z,9.20
2018-06-15T22:23:48.161Z,8.80
2018-06-15T22:26:16.441Z,10.30
2018-06-15T22:28:44.913Z,9.10
2018-06-15T22:31:13.264Z,9.23
2018-06-15T22:33:41.609Z,9.60
2018-06-15T22:36:09.886Z,8.57
2018-06-15T22:38:38.211Z,9.60
2018-06-15T22:41:06.502Z,9.53
2018-06-15T22:43:34.822Z,9.87
2018-06-15T22:46:03.166Z,8.93
2018-06-15T22:48:31.486Z,9.43
2018-06-15T22:50:59.798Z,9.97
2018-06-15T22:53:28.068Z,9.67
2018-06-15T22:55:56.357Z,9.27
2018-06-15T22:58:24.630Z,9.93
2018-06-15T23:00:52.928Z,9.80
2018-06-15T23:03:21.206Z,10.37
2018-06-15T23:05:49.504Z,9.33
2018-06-15T23:08:17.788Z,9.90
2018-06-15T23:10:46.091Z,9.57
2018-06-15T23:13:14.361Z,10.80
2018-06-15T23:15:44.367Z,9.90
2018-06-15T23:18:12.689Z,10.07
2018-06-15T23:20:41.010Z,11.33
2018-06-15T23:23:09.466Z,10.40
2018-06-15T23:25:37.780Z,10.17
2018-06-15T23:28:06.128Z,10.37
2018-06-15T23:30:34.447Z,10.40
2018-06-15T23:33:02.749Z,10.43
2018-06-15T23:35:31.069Z,11.07
2018-06-15T23:37:59.332Z,10.30
2018-06-15T23:40:27.629Z,10.50
2018-06-15T23:42:55.902Z,11.30
2018-06-15T23:45:24.273Z,10.80
2018-06-15T23:47:52.584Z,11.00
2018-06-15T23:50:20.894Z,11.00
2018-06-15T23:52:49.163Z,10.80
2018-06-15T23:55:17.534Z,11.00
2018-06-15T23:57:45.893Z,11.70
